To NAV CANADA Home Page Login to a new session Search on AWWS site Feedback and Comments Disclaimer Vers la page française équivalente Tips FAQ What's new on the site To the Forecasts and Observations / NOTAM section To "File a Flight Plan" website Publications and other links Update of the User's profile FIC Telephone Numbers My Weather Data Folder Route Weather Data Regional Weather Data Local Weather Data To the Forecasts and Observations / NOTAM section
Request Generated 07/01/2015 at 15:20:08 UTC . Weather information available at that time is displayed.

METAR/TAF

TORONTO/BUTTONVILLE MUNICIPAL/ON    

METAR CYKZ 011500Z 32016KT 15SM BKN018 19/14 A2975 RMK SC7 TCU ASOCTD
SLP073 DENSITY ALT 1400FT=
SPECI CYKZ 011433Z 31014G24KT 15SM BKN018 18/14 A2974 RMK SC7 TCU
ASOCTD SLP071 DENSITY ALT 1400FT=
METAR CYKZ 011400Z 31008G17KT 270V330 15SM BKN014 BKN110 18/15 A2973
RMK SC6AC1 SLP069 DENSITY ALT 1300FT=
METAR CYKZ 011300Z 32013KT 14SM VCSH BKN012 BKN090 17/14 A2973 RMK
SC7AC1 AC TR OCNL-SHRA TCU ASOCTD SLP069 DENSITY ALT 1200FT=

TAF CYKZ 011139Z 0112/0124 31005KT P6SM OVC025 TEMPO 0112/0114 21/2SM
BR OVC015
FM011400 32012KT P6SM SCT006 OVC030 TEMPO 0114/0116 5SM BR BKN006
OVC030
FM011700 30012G22KT P6SM SCT015 BKN030 TEMPO 0117/0122 BKN015
OVC030
BECMG 0122/0124 33012KT
RMK NXT FCST BY 011800Z=
Your time UTC time
Weather data provided by Environment Canada and NAV CANADA